Decoded Metar for EPMO ( in ) (IATA:) | Meteo·Mobile Aviation Weather
aviador You're here:

EPMO Decoded Metar

in
Report Time2019-07-19 18:30:00
UTC Time2019-07-19 19:01:12
Flight Rules vfr VFR
Wind250° at 06 kt
W.Decomp.*RWY 26: 5.9 kt HW 1 kt LCW
Visibility9999 m
Phenomena:N/A
Clouds:N/A
Expected CloudBase > 5,600 ft AGL from Temp-Dew spread
CeilingNone
Temp24°C
Dew Point10°C (41% RH)
AAT21.9°C
QNH1013 hPa
Raw Report
EPMO 191830Z 25006KT CAVOK 24/10 Q1013=

Extra information for EPMO:More info

Social comments